Time;durP1;ratioP1;P1;durP2;ratioP2;P2;SDS_P1;SDS_P2;PMS_P1;PMS_P2;Temp;Humidity;BMP_temperature;BMP_pressure;BME280_temperature;BME280_humidity;BME280_pressure;Samples;Min_cycle;Max_cycle;Signal;HPM_P1;HPM_P2
2023/06/11 00:01:46;;;;;;;9.13;7.25;;;;;;;21.12;100.00;99016.59;5029350;28;20688;-77
2023/06/11 00:04:24;;;;;;;8.77;7.85;;;;;;;21.02;100.00;99004.31;5034766;28;20220;-77
2023/06/11 00:06:56;;;;;;;11.00;7.72;;;;;;;21.10;100.00;99018.63;5032329;28;20190;-77
2023/06/11 00:09:25;;;;;;;8.27;7.47;;;;;;;21.16;100.00;99011.75;5028330;28;20202;-77
2023/06/11 00:11:54;;;;;;;10.07;7.95;;;;;;;20.97;100.00;99012.91;5029330;28;20197;-77
2023/06/11 00:14:24;;;;;;;9.48;7.55;;;;;;;20.94;100.00;99012.38;5024406;28;20273;-76
2023/06/11 00:16:54;;;;;;;8.27;7.38;;;;;;;21.02;100.00;99026.69;4970698;28;20203;-76
2023/06/11 00:19:28;;;;;;;12.80;8.55;;;;;;;20.96;100.00;99022.00;4967024;28;20196;-77
2023/06/11 00:22:02;;;;;;;8.65;7.57;;;;;;;21.00;100.00;99023.34;4964074;28;20274;-77
2023/06/11 00:24:31;;;;;;;8.50;7.60;;;;;;;21.04;100.00;99021.19;4965586;28;20686;-77
2023/06/11 00:27:01;;;;;;;8.25;7.18;;;;;;;20.94;100.00;99017.78;4967258;28;20204;-77
2023/06/11 00:29:30;;;;;;;11.30;8.48;;;;;;;21.00;100.00;99017.97;4961633;28;20249;-76
2023/06/11 00:32:00;;;;;;;9.02;8.13;;;;;;;20.94;100.00;99013.25;4900934;29;20271;-76
2023/06/11 00:34:31;;;;;;;8.18;7.30;;;;;;;20.94;100.00;99017.78;4965106;28;20191;-76
2023/06/11 00:37:01;;;;;;;9.50;8.50;;;;;;;20.81;100.00;99029.06;5004204;28;20289;-76
2023/06/11 00:39:31;;;;;;;11.02;9.15;;;;;;;20.73;100.00;99029.03;5005792;28;20194;-76
2023/06/11 00:42:00;;;;;;;10.02;8.45;;;;;;;20.53;100.00;99023.13;4969554;28;20203;-77
2023/06/11 00:44:30;;;;;;;10.48;8.57;;;;;;;20.50;100.00;99031.53;4963749;28;20202;-76
2023/06/11 00:46:59;;;;;;;10.30;8.45;;;;;;;20.73;100.00;99037.13;4971284;28;20783;-76
2023/06/11 00:49:28;;;;;;;9.93;7.95;;;;;;;20.67;100.00;99033.25;4973375;28;20198;-77
2023/06/11 00:51:57;;;;;;;8.57;7.78;;;;;;;20.83;100.00;99035.09;4970513;28;20660;-78
2023/06/11 00:54:29;;;;;;;9.27;8.15;;;;;;;20.90;100.00;99036.13;4952916;28;20211;-77
2023/06/11 00:56:57;;;;;;;10.43;7.75;;;;;;;20.81;100.00;99029.06;4968921;28;20203;-76
2023/06/11 00:59:27;;;;;;;8.68;7.40;;;;;;;20.85;100.00;99035.81;4972884;28;20201;-77
2023/06/11 01:02:05;;;;;;;10.60;9.13;;;;;;;20.77;100.00;99033.09;5007362;28;20202;-76
2023/06/11 01:04:39;;;;;;;10.60;7.20;;;;;;;20.84;100.00;99029.59;5006836;28;20304;-77
2023/06/11 01:07:08;;;;;;;8.63;7.78;;;;;;;20.86;100.00;99032.09;5007801;28;20365;-77
2023/06/11 01:09:40;;;;;;;10.18;7.28;;;;;;;21.06;100.00;99022.69;5006865;28;20206;-76
2023/06/11 01:12:12;;;;;;;8.45;7.22;;;;;;;21.06;100.00;99032.63;5007387;28;20245;-76
2023/06/11 01:14:46;;;;;;;9.25;7.60;;;;;;;20.97;100.00;99017.47;5011231;28;20201;-76
2023/06/11 01:17:22;;;;;;;10.07;7.85;;;;;;;20.93;100.00;99025.00;4965090;28;20205;-76
2023/06/11 01:20:15;;;;;;;8.85;7.97;;;;;;;20.86;100.00;99027.56;5010603;28;20204;-77
2023/06/11 01:23:04;;;;;;;8.50;7.60;;;;;;;20.68;100.00;99031.41;5000866;28;20222;-76
2023/06/11 01:25:39;;;;;;;12.63;10.90;;;;;;;20.65;100.00;99031.72;4987570;28;20196;-76
2023/06/11 01:28:10;;;;;;;10.43;8.85;;;;;;;20.62;100.00;99040.13;4987952;28;20202;-76
2023/06/11 01:30:43;;;;;;;9.48;8.52;;;;;;;20.73;100.00;99034.41;4998519;28;20221;-77
2023/06/11 01:33:13;;;;;;;9.32;8.13;;;;;;;20.81;100.00;99027.19;5005261;28;20195;-77
2023/06/11 01:35:43;;;;;;;9.63;7.68;;;;;;;20.90;100.00;99038.81;4998720;28;20199;-77
2023/06/11 01:38:13;;;;;;;10.00;8.10;;;;;;;20.81;100.00;99039.81;4998762;28;20333;-76
2023/06/11 01:40:42;;;;;;;9.52;7.95;;;;;;;20.84;100.00;99036.78;4963226;28;20206;-77
2023/06/11 01:43:12;;;;;;;9.60;8.00;;;;;;;20.78;100.00;99030.22;4963578;28;20315;-77
2023/06/11 01:45:41;;;;;;;9.25;8.20;;;;;;;20.78;100.00;99037.47;4966647;28;20199;-77
2023/06/11 01:48:09;;;;;;;9.57;8.68;;;;;;;20.65;100.00;99045.16;4962100;28;20242;-77
2023/06/11 01:50:38;;;;;;;8.00;7.18;;;;;;;20.75;100.00;99046.72;4966162;28;20199;-77
2023/06/11 01:53:10;;;;;;;8.40;7.60;;;;;;;20.69;100.00;99039.31;4968645;28;20234;-76
2023/06/11 01:55:39;;;;;;;9.68;7.20;;;;;;;20.66;100.00;99047.72;4961587;28;20203;-77
2023/06/11 01:58:07;;;;;;;8.10;7.20;;;;;;;20.68;100.00;99047.56;4963674;28;20203;-77
2023/06/11 02:00:37;;;;;;;9.02;7.75;;;;;;;20.68;100.00;99048.41;4962661;28;20223;-76
2023/06/11 02:03:06;;;;;;;8.63;7.60;;;;;;;20.67;100.00;99044.03;4965339;28;20566;-77
2023/06/11 02:05:35;;;;;;;8.20;7.47;;;;;;;20.62;100.00;99045.50;4984821;28;20302;-77
2023/06/11 02:08:03;;;;;;;10.38;8.05;;;;;;;20.52;100.00;99045.66;5010711;28;20190;-77
2023/06/11 02:10:32;;;;;;;8.23;7.43;;;;;;;20.55;100.00;99043.47;4970968;28;20607;-77
2023/06/11 02:13:00;;;;;;;9.02;7.78;;;;;;;20.59;100.00;99038.63;4966801;28;20206;-76
2023/06/11 02:15:28;;;;;;;8.57;7.82;;;;;;;20.56;100.00;99036.25;4966732;28;20212;-77
2023/06/11 02:17:58;;;;;;;9.68;7.20;;;;;;;20.37;100.00;99034.66;4963097;28;20239;-77
2023/06/11 02:20:27;;;;;;;9.07;7.40;;;;;;;20.45;100.00;99032.00;4970396;28;20203;-77
2023/06/11 02:22:55;;;;;;;10.23;7.35;;;;;;;20.45;100.00;99033.84;4966886;28;20200;-76
2023/06/11 02:25:24;;;;;;;8.15;7.35;;;;;;;20.48;100.00;99033.53;4969417;28;20270;-77
2023/06/11 02:27:52;;;;;;;8.02;7.25;;;;;;;20.35;100.00;99031.28;4978808;28;20190;-76
2023/06/11 02:30:20;;;;;;;9.35;7.35;;;;;;;20.20;100.00;99036.44;5022147;28;20237;-76
2023/06/11 02:32:50;;;;;;;8.20;7.40;;;;;;;20.13;100.00;99034.56;5029095;28;20200;-77
2023/06/11 02:35:22;;;;;;;8.40;7.07;;;;;;;20.09;100.00;99039.44;5036424;28;20208;-77
2023/06/11 02:37:50;;;;;;;8.48;7.57;;;;;;;20.07;100.00;99033.34;5036104;28;20193;-77
2023/06/11 02:40:20;;;;;;;8.25;7.45;;;;;;;20.10;100.00;99033.06;5031205;28;20208;-76
2023/06/11 02:42:48;;;;;;;8.20;7.40;;;;;;;20.09;100.00;99039.44;5028359;28;20204;-77
2023/06/11 02:45:16;;;;;;;7.82;7.13;;;;;;;20.10;100.00;99034.91;5030500;28;20228;-77
2023/06/11 02:47:45;;;;;;;7.68;6.95;;;;;;;20.19;100.00;99034.75;5032656;28;20196;-76
2023/06/11 02:50:13;;;;;;;9.07;7.93;;;;;;;20.15;100.00;99033.38;5026276;28;20232;-76
2023/06/11 02:52:43;;;;;;;8.15;6.95;;;;;;;20.25;100.00;99034.09;5028568;28;20200;-76
2023/06/11 02:55:11;;;;;;;8.10;7.00;;;;;;;20.16;100.00;99039.59;5029526;28;20198;-76
2023/06/11 02:57:40;;;;;;;8.25;7.30;;;;;;;20.23;100.00;99040.66;5025320;28;20208;-76
2023/06/11 03:00:10;;;;;;;8.20;7.40;;;;;;;20.19;100.00;99042.00;5035783;28;20189;-77
2023/06/11 03:02:39;;;;;;;9.30;7.30;;;;;;;20.15;100.00;99043.31;5030296;28;20205;-76
2023/06/11 03:05:09;;;;;;;8.38;7.57;;;;;;;20.07;100.00;99044.09;5035253;28;20248;-77
2023/06/11 03:07:38;;;;;;;7.95;6.90;;;;;;;20.09;100.00;99042.13;5031201;28;20208;-76
2023/06/11 03:10:10;;;;;;;8.50;7.68;;;;;;;20.00;100.00;99045.78;5027548;28;20202;-77
2023/06/11 03:12:38;;;;;;;9.77;7.43;;;;;;;19.94;100.00;99046.41;5029458;28;20194;-76
2023/06/11 03:15:08;;;;;;;8.13;7.28;;;;;;;19.86;100.00;99043.69;5032284;28;20193;-77
2023/06/11 03:17:37;;;;;;;9.55;7.80;;;;;;;19.85;100.00;99042.84;5028253;28;20242;-76
2023/06/11 03:20:06;;;;;;;8.63;7.70;;;;;;;19.84;100.00;99043.84;5026394;28;20197;-76
2023/06/11 03:22:35;;;;;;;8.17;7.37;;;;;;;19.79;100.00;99054.25;5025736;28;20232;-76
2023/06/11 03:25:03;;;;;;;8.70;7.15;;;;;;;19.69;100.00;99046.28;5027754;28;20252;-76
2023/06/11 03:27:33;;;;;;;8.80;7.73;;;;;;;19.55;100.00;99054.06;4956871;28;20216;-76
2023/06/11 03:30:02;;;;;;;8.53;7.40;;;;;;;19.63;100.00;99054.13;4941617;28;20251;-76
2023/06/11 03:32:31;;;;;;;8.10;7.30;;;;;;;19.59;100.00;99048.25;4928428;29;20205;-76
2023/06/11 03:35:01;;;;;;;8.60;7.70;;;;;;;19.39;100.00;99060.13;4933269;29;20200;-77
2023/06/11 03:37:29;;;;;;;8.40;7.40;;;;;;;19.47;100.00;99062.03;4935313;29;20205;-76
2023/06/11 03:39:58;;;;;;;8.40;7.60;;;;;;;19.18;100.00;99060.47;4930181;29;20201;-76
2023/06/11 03:42:28;;;;;;;8.43;7.63;;;;;;;19.26;100.00;99054.34;4929094;29;20197;-76
2023/06/11 03:44:58;;;;;;;9.43;7.53;;;;;;;19.03;100.00;99054.84;4929045;29;20728;-76
2023/06/11 03:47:26;;;;;;;8.23;7.40;;;;;;;19.13;100.00;99052.91;4931747;29;20269;-77
2023/06/11 03:49:55;;;;;;;8.70;7.80;;;;;;;19.23;100.00;99060.88;4929554;29;20212;-76
2023/06/11 03:52:23;;;;;;;8.27;7.47;;;;;;;19.00;100.00;99057.81;4971447;28;20203;-77
2023/06/11 03:54:51;;;;;;;9.27;8.20;;;;;;;19.17;100.00;99053.44;5010759;28;20202;-76
2023/06/11 03:57:20;;;;;;;9.23;8.00;;;;;;;19.19;100.00;99055.94;5007082;28;20202;-76
2023/06/11 03:59:48;;;;;;;9.10;8.20;;;;;;;19.26;100.00;99055.19;5011566;28;20209;-77
2023/06/11 04:02:18;;;;;;;8.57;7.77;;;;;;;19.08;100.00;99062.41;4930477;29;20201;-76
2023/06/11 04:04:46;;;;;;;9.83;7.77;;;;;;;19.25;100.00;99052.66;4923052;29;20229;-76
2023/06/11 04:07:16;;;;;;;9.53;7.97;;;;;;;19.30;100.00;99051.19;4926415;29;20200;-76
2023/06/11 04:09:45;;;;;;;8.87;7.77;;;;;;;19.28;100.00;99060.41;4927167;29;20201;-76
2023/06/11 04:12:14;;;;;;;7.67;6.90;;;;;;;19.18;100.00;99057.78;4872928;29;20211;-76
2023/06/11 04:14:42;;;;;;;7.90;7.10;;;;;;;19.40;100.00;99056.47;4877490;29;20211;-77
2023/06/11 04:17:11;;;;;;;8.27;7.40;;;;;;;19.27;100.00;99059.56;4874403;29;20197;-76
2023/06/11 04:19:41;;;;;;;9.20;7.97;;;;;;;19.29;100.00;99057.53;4885984;29;20200;-76
2023/06/11 04:22:09;;;;;;;8.63;7.77;;;;;;;19.39;100.00;99058.28;4930384;29;20197;-76
2023/06/11 04:24:38;;;;;;;9.93;7.57;;;;;;;19.38;100.00;99059.28;4930062;29;20225;-76
2023/06/11 04:27:07;;;;;;;8.63;7.80;;;;;;;19.46;100.00;99063.88;4927995;29;20590;-76
2023/06/11 04:29:36;;;;;;;8.30;7.50;;;;;;;19.43;100.00;99065.06;4929470;29;20232;-76
2023/06/11 04:32:05;;;;;;;10.63;7.80;;;;;;;19.42;100.00;99065.22;4945152;29;20204;-76
2023/06/11 04:34:35;;;;;;;7.93;7.23;;;;;;;19.45;100.00;99070.28;4893352;29;20205;-76
2023/06/11 04:37:08;;;;;;;8.00;7.30;;;;;;;19.53;100.00;99064.97;4894500;29;20190;-76
2023/06/11 04:39:37;;;;;;;8.67;7.77;;;;;;;19.50;100.00;99067.13;4889562;29;20677;-76
2023/06/11 04:42:06;;;;;;;8.87;7.63;;;;;;;19.62;100.00;99068.56;4886369;29;20230;-76
2023/06/11 04:44:36;;;;;;;9.73;7.63;;;;;;;19.62;100.00;99064.03;4947635;29;20204;-77
2023/06/11 04:47:05;;;;;;;8.33;7.50;;;;;;;19.66;100.00;99073.47;4953825;29;20280;-76
2023/06/11 04:49:35;;;;;;;8.97;8.07;;;;;;;19.56;100.00;99070.03;4837484;29;20223;-77
2023/06/11 04:52:05;;;;;;;9.43;7.90;;;;;;;19.73;100.00;99068.31;4837555;29;20204;-76
2023/06/11 04:54:34;;;;;;;8.77;7.87;;;;;;;19.72;100.00;99066.63;4834969;29;20204;-76
2023/06/11 04:57:04;;;;;;;8.23;7.43;;;;;;;19.91;100.00;99060.19;4835970;29;20563;-76
2023/06/11 04:59:32;;;;;;;7.73;7.03;;;;;;;19.88;100.00;99058.66;4853751;29;20205;-77
2023/06/11 05:02:01;;;;;;;9.80;8.60;;;;;;;19.85;100.00;99072.41;4908671;29;20273;-76
2023/06/11 05:04:29;;;;;;;8.33;7.53;;;;;;;19.96;100.00;99064.06;4912729;29;20202;-76
2023/06/11 05:07:00;;;;;;;13.03;8.20;;;;;;;20.16;100.00;99064.66;4915238;29;20676;-77
2023/06/11 05:09:30;;;;;;;10.53;7.47;;;;;;;20.23;100.00;99067.56;4909509;29;20211;-76
2023/06/11 05:12:00;;;;;;;8.33;7.53;;;;;;;20.20;100.00;99071.41;4904993;29;20202;-77
2023/06/11 05:14:29;;;;;;;10.70;7.80;;;;;;;20.09;100.00;99074.41;4949831;28;20199;-76
2023/06/11 05:16:59;;;;;;;9.95;7.30;;;;;;;20.40;100.00;99072.00;4986077;28;20210;-76
2023/06/11 05:19:28;;;;;;;10.13;7.50;;;;;;;20.20;100.00;99068.72;4984765;28;20198;-78
2023/06/11 05:21:57;;;;;;;8.03;7.30;;;;;;;20.31;100.00;99072.97;4984348;28;20195;-77
2023/06/11 05:24:29;;;;;;;8.38;7.57;;;;;;;20.30;100.00;99080.19;4986849;28;20199;-76
2023/06/11 05:27:00;;;;;;;9.55;7.07;;;;;;;20.60;100.00;99072.59;4991128;28;20245;-77
2023/06/11 05:29:28;;;;;;;8.13;7.32;;;;;;;20.74;100.00;99069.25;5012137;28;20237;-76
2023/06/11 05:32:00;;;;;;;8.38;7.57;;;;;;;20.87;100.00;99074.16;5030540;28;20264;-77
2023/06/11 05:34:30;;;;;;;8.70;7.07;;;;;;;20.95;100.00;99074.19;5025259;28;20682;-77
2023/06/11 05:37:01;;;;;;;8.65;7.75;;;;;;;20.98;100.00;99078.38;5023541;28;20201;-77
2023/06/11 05:39:29;;;;;;;7.75;7.00;;;;;;;21.25;100.00;99088.00;5020226;28;20225;-76
2023/06/11 05:42:00;;;;;;;8.85;7.47;;;;;;;21.28;100.00;99093.09;5024636;28;20240;-77
2023/06/11 05:44:28;;;;;;;8.32;7.25;;;;;;;21.27;100.00;99083.31;5030181;28;20198;-77
2023/06/11 05:46:57;;;;;;;7.85;7.05;;;;;;;21.53;100.00;99080.47;5021204;28;20222;-77
2023/06/11 05:49:26;;;;;;;10.00;7.68;;;;;;;21.76;100.00;99085.97;5023130;28;20217;-77
2023/06/11 05:51:56;;;;;;;8.13;7.07;;;;;;;21.81;100.00;99092.56;5024080;28;20202;-77
2023/06/11 05:54:26;;;;;;;8.57;7.10;;;;;;;21.69;100.00;99089.34;4951094;28;20660;-77
2023/06/11 05:56:59;;;;;;;8.13;7.30;;;;;;;21.57;100.00;99090.72;4874958;29;20215;-77
2023/06/11 05:59:28;;;;;;;7.93;7.22;;;;;;;21.73;100.00;99089.03;4868067;29;20206;-77
2023/06/11 06:01:58;;;;;;;11.20;7.32;;;;;;;21.76;100.00;99089.50;4872156;29;20255;-77
2023/06/11 06:04:27;;;;;;;8.32;7.53;;;;;;;21.91;100.00;99092.38;4872210;29;20247;-76
2023/06/11 06:06:56;;;;;;;8.20;7.30;;;;;;;21.86;100.00;99092.88;4873040;29;20246;-76
2023/06/11 06:09:25;;;;;;;9.43;7.45;;;;;;;21.88;100.00;99095.38;4858064;29;20216;-77
2023/06/11 06:11:53;;;;;;;8.30;7.40;;;;;;;21.90;100.00;99102.28;4862763;29;20225;-76
2023/06/11 06:14:23;;;;;;;8.55;7.25;;;;;;;22.11;100.00;99103.63;4924074;28;20199;-77
2023/06/11 06:16:52;;;;;;;8.57;7.35;;;;;;;22.22;100.00;99103.25;4981893;28;20270;-76
2023/06/11 06:19:21;;;;;;;9.45;6.68;;;;;;;22.25;100.00;99101.03;4983589;28;20195;-77
2023/06/11 06:21:49;;;;;;;7.85;7.10;;;;;;;22.07;100.00;99107.69;4978691;28;20203;-76
2023/06/11 06:24:18;;;;;;;12.10;6.93;;;;;;;22.32;100.00;99106.59;4985330;28;20282;-77
2023/06/11 06:26:47;;;;;;;9.45;7.25;;;;;;;22.59;100.00;99099.06;4987869;28;20221;-77
2023/06/11 06:29:17;;;;;;;9.45;7.50;;;;;;;22.71;100.00;99109.28;5025321;28;20201;-76
2023/06/11 06:31:47;;;;;;;6.97;6.38;;;;;;;22.75;100.00;99102.50;5026872;28;20649;-76
2023/06/11 06:34:17;;;;;;;9.88;7.00;;;;;;;22.81;100.00;99109.91;5032329;28;20203;-76
2023/06/11 06:36:46;;;;;;;7.20;6.60;;;;;;;22.85;100.00;99110.41;4987339;28;20203;-76
2023/06/11 06:39:15;;;;;;;8.48;7.20;;;;;;;22.94;100.00;99106.63;4985394;28;20217;-76
2023/06/11 06:41:44;;;;;;;7.80;6.70;;;;;;;23.01;100.00;99109.47;4950159;28;20209;-76
2023/06/11 06:44:12;;;;;;;7.32;6.63;;;;;;;23.30;100.00;99106.91;4983543;28;20210;-76
2023/06/11 06:46:40;;;;;;;7.75;6.55;;;;;;;23.29;100.00;99112.50;4983019;28;20223;-76
2023/06/11 06:49:10;;;;;;;8.60;7.20;;;;;;;23.50;100.00;99117.22;4981726;28;20198;-76
2023/06/11 06:51:39;;;;;;;7.35;6.63;;;;;;;23.39;100.00;99111.22;4987912;28;20203;-76
2023/06/11 06:54:07;;;;;;;7.93;6.70;;;;;;;23.52;100.00;99121.41;4982482;28;20371;-76
2023/06/11 06:56:35;;;;;;;7.80;6.72;;;;;;;23.59;100.00;99118.84;4986902;28;20199;-76
2023/06/11 06:59:04;;;;;;;8.52;6.78;;;;;;;23.50;100.00;99112.66;4988006;28;20210;-76
2023/06/11 07:01:33;;;;;;;8.27;7.43;;;;;;;23.80;100.00;99121.69;4985594;28;20433;-76
2023/06/11 07:04:01;;;;;;;7.07;6.45;;;;;;;23.63;100.00;99121.00;4985544;28;20681;-76
2023/06/11 07:06:32;;;;;;;7.85;6.97;;;;;;;23.75;100.00;99124.13;4985831;28;20710;-77
2023/06/11 07:09:03;;;;;;;7.68;6.88;;;;;;;23.96;100.00;99126.13;5031123;28;20225;-77
2023/06/11 07:11:31;;;;;;;7.10;6.40;;;;;;;23.98;100.00;99122.19;5027772;28;20202;-77
2023/06/11 07:14:00;;;;;;;8.27;6.82;;;;;;;23.98;100.00;99134.88;5030253;28;20201;-77
2023/06/11 07:16:28;;;;;;;7.07;6.43;;;;;;;24.15;100.00;99131.00;5025535;28;20194;-77
2023/06/11 07:18:57;;;;;;;7.38;6.57;;;;;;;24.17;100.00;99130.81;5028541;28;20202;-77
2023/06/11 07:21:26;;;;;;;7.53;6.82;;;;;;;24.44;100.00;99129.34;5030377;28;20194;-77
2023/06/11 07:23:57;;;;;;;7.60;6.60;;;;;;;24.39;100.00;99127.19;5035759;28;20229;-77
2023/06/11 07:26:25;;;;;;;7.50;6.60;;;;;;;24.53;100.00;99122.81;5028208;28;20218;-77
2023/06/11 07:28:53;;;;;;;7.60;6.85;;;;;;;24.55;100.00;99129.69;5029173;28;20198;-77
2023/06/11 07:31:23;;;;;;;7.55;6.80;;;;;;;24.70;100.00;99128.81;5029743;28;20240;-77
2023/06/11 07:33:52;;;;;;;8.30;7.40;;;;;;;24.81;100.00;99136.50;5035427;28;20194;-77
2023/06/11 07:36:20;;;;;;;7.53;6.85;;;;;;;24.80;100.00;99134.78;5027562;28;20201;-77
2023/06/11 07:38:48;;;;;;;11.35;7.00;;;;;;;25.00;100.00;99133.16;5035264;28;20322;-77
2023/06/11 07:41:18;;;;;;;7.68;7.00;;;;;;;25.04;99.75;99130.94;5025189;28;20284;-77
2023/06/11 07:43:47;;;;;;;7.72;6.75;;;;;;;25.06;100.00;99135.13;5028690;28;20198;-77
2023/06/11 07:46:16;;;;;;;7.40;6.70;;;;;;;25.31;98.73;99132.06;5024723;28;20208;-77
2023/06/11 07:48:45;;;;;;;9.63;7.07;;;;;;;25.37;95.86;99125.84;5032563;28;20194;-77
2023/06/11 07:51:14;;;;;;;9.45;6.63;;;;;;;25.66;95.03;99128.41;5023790;28;20708;-77
2023/06/11 07:53:47;;;;;;;7.25;6.13;;;;;;;25.71;91.02;99132.47;5027195;28;20209;-77
2023/06/11 07:56:20;;;;;;;6.90;6.30;;;;;;;25.98;83.64;99128.91;5027059;28;20197;-77
2023/06/11 07:58:48;;;;;;;6.65;6.07;;;;;;;26.04;75.16;99133.53;5024819;28;20198;-77
2023/06/11 08:01:17;;;;;;;8.30;6.30;;;;;;;25.80;74.50;99123.97;5034960;28;20252;-77
2023/06/11 08:03:45;;;;;;;6.95;5.85;;;;;;;25.55;73.48;99128.94;5029556;28;20229;-78
2023/06/11 08:06:15;;;;;;;7.22;6.47;;;;;;;25.62;70.86;99134.44;5022780;28;20198;-77
2023/06/11 08:08:43;;;;;;;6.53;5.80;;;;;;;25.71;70.25;99129.75;5024251;28;20233;-77
2023/06/11 08:11:13;;;;;;;7.13;6.30;;;;;;;25.78;71.99;99123.34;5033452;28;20216;-77
2023/06/11 08:13:44;;;;;;;8.65;6.53;;;;;;;26.04;69.75;99121.84;5030873;28;20202;-78
2023/06/11 08:16:12;;;;;;;8.50;6.30;;;;;;;26.33;70.65;99128.91;5029007;28;20186;-77
2023/06/11 08:18:41;;;;;;;7.40;6.30;;;;;;;26.04;70.90;99114.53;5026668;28;20231;-77
2023/06/11 08:21:09;;;;;;;7.10;6.40;;;;;;;26.17;65.73;99122.78;5034519;28;20198;-77
2023/06/11 08:23:39;;;;;;;6.95;6.10;;;;;;;26.52;63.17;99123.63;5025722;28;20194;-77
2023/06/11 08:26:08;;;;;;;7.05;6.38;;;;;;;26.63;62.70;99122.19;5030053;28;20201;-77
2023/06/11 08:28:36;;;;;;;7.40;6.47;;;;;;;26.80;63.90;99118.09;5030676;28;20677;-77
2023/06/11 08:31:06;;;;;;;7.30;6.60;;;;;;;26.67;61.08;99112.63;5030499;28;20233;-77
2023/06/11 08:33:34;;;;;;;6.65;6.05;;;;;;;26.92;59.42;99120.22;5027328;28;20221;-77
2023/06/11 08:36:03;;;;;;;6.80;6.20;;;;;;;26.90;58.29;99111.44;5026954;28;20205;-77
2023/06/11 08:38:31;;;;;;;6.88;6.07;;;;;;;26.84;55.17;99115.00;5027962;28;20683;-77
2023/06/11 08:41:00;;;;;;;6.40;5.80;;;;;;;27.00;54.95;99112.72;5029911;28;20229;-77
2023/06/11 08:43:29;;;;;;;8.07;7.15;;;;;;;27.00;55.88;99109.16;5026295;28;20205;-78
2023/06/11 08:45:57;;;;;;;7.32;6.43;;;;;;;27.17;56.12;99110.50;5034124;28;20197;-78
2023/06/11 08:48:31;;;;;;;6.75;6.15;;;;;;;27.20;54.99;99114.69;5025043;28;20268;-78
2023/06/11 08:51:01;;;;;;;6.50;5.90;;;;;;;27.46;51.63;99112.00;5025625;28;20683;-78
2023/06/11 08:53:30;;;;;;;6.82;6.13;;;;;;;27.50;50.19;99110.53;5033957;28;20624;-78
2023/06/11 08:55:59;;;;;;;8.15;5.57;;;;;;;27.41;49.53;99114.53;5027317;28;20641;-78
2023/06/11 08:58:30;;;;;;;8.05;6.05;;;;;;;27.47;49.71;99110.13;5033864;28;20198;-78
2023/06/11 09:00:59;;;;;;;6.10;5.50;;;;;;;27.34;50.41;99106.34;5027144;28;20216;-78
2023/06/11 09:03:28;;;;;;;6.70;5.38;;;;;;;27.31;47.05;99109.50;4995581;28;20194;-78
2023/06/11 09:05:57;;;;;;;8.13;5.60;;;;;;;27.35;46.43;99099.84;5026993;28;20280;-78
2023/06/11 09:08:25;;;;;;;6.07;5.40;;;;;;;27.70;44.81;99110.59;5033459;28;20221;-79
2023/06/11 09:10:54;;;;;;;8.48;5.18;;;;;;;27.82;44.35;99103.47;5029686;28;20236;-79
2023/06/11 09:13:26;;;;;;;8.10;5.43;;;;;;;27.84;42.87;99100.50;5021180;28;20564;-78
2023/06/11 09:15:56;;;;;;;7.65;5.78;;;;;;;27.65;42.11;99104.88;5028354;28;20202;-78
2023/06/11 09:18:26;;;;;;;8.25;6.10;;;;;;;27.93;40.30;99100.09;5025956;28;20205;-78
2023/06/11 09:20:57;;;;;;;8.05;5.57;;;;;;;27.90;40.09;99095.06;5031155;28;20193;-78
2023/06/11 09:23:27;;;;;;;6.60;5.22;;;;;;;28.13;41.29;99094.59;5029393;28;20252;-78
2023/06/11 09:25:59;;;;;;;8.15;5.40;;;;;;;28.23;39.40;99091.44;5027692;28;20208;-79
2023/06/11 09:28:31;;;;;;;5.88;4.95;;;;;;;28.23;39.77;99089.53;5032338;28;20217;-79
2023/06/11 09:31:01;;;;;;;9.20;5.43;;;;;;;28.35;40.96;99084.28;5027161;28;20687;-79
2023/06/11 09:35:59;;;;;;;8.75;5.93;;;;;;;28.02;39.56;99097.97;5131382;27;20548;-77
2023/06/11 09:38:28;;;;;;;6.75;5.05;;;;;;;27.83;39.94;99098.84;5131080;27;20649;-77
2023/06/11 09:41:00;;;;;;;8.95;5.60;;;;;;;27.74;39.45;99098.22;5126872;27;20281;-77
2023/06/11 09:43:29;;;;;;;7.20;5.10;;;;;;;27.82;39.45;99095.28;5074899;28;20229;-77
2023/06/11 09:45:57;;;;;;;6.88;5.88;;;;;;;28.13;40.73;99100.06;5125104;27;20198;-76
2023/06/11 09:48:26;;;;;;;7.95;5.65;;;;;;;27.95;40.88;99097.97;5127280;27;20630;-77
2023/06/11 09:50:55;;;;;;;6.45;5.55;;;;;;;28.67;39.70;99106.22;5091311;27;20198;-77
2023/06/11 09:53:25;;;;;;;6.68;5.53;;;;;;;28.54;38.39;99098.91;5130488;27;20195;-77
2023/06/11 09:55:54;;;;;;;8.43;5.10;;;;;;;29.02;38.85;99098.50;5127101;27;20225;-77
2023/06/11 09:58:40;;;;;;;12.27;7.18;;;;;;;28.94;37.81;99094.13;5130627;27;20198;-77
2023/06/11 10:01:10;;;;;;;7.05;5.80;;;;;;;28.62;37.48;99092.38;5130805;27;20199;-77
2023/06/11 10:03:39;;;;;;;6.13;4.85;;;;;;;28.49;37.34;99087.81;5127778;27;20199;-77
2023/06/11 10:06:14;;;;;;;6.80;5.38;;;;;;;28.61;36.98;99094.28;5111744;27;20198;-77
2023/06/11 10:08:48;;;;;;;7.18;5.10;;;;;;;28.92;37.55;99095.41;5130610;27;20465;-77
2023/06/11 10:11:23;;;;;;;10.52;5.50;;;;;;;28.75;36.55;99101.31;5128898;27;20549;-77
2023/06/11 10:13:59;;;;;;;5.60;5.10;;;;;;;28.87;37.37;99097.94;5128027;27;20198;-79
2023/06/11 10:16:28;;;;;;;7.60;5.22;;;;;;;28.90;36.45;99092.91;5130137;27;20194;-77
2023/06/11 10:19:06;;;;;;;9.68;5.40;;;;;;;28.54;37.44;99103.53;5129868;27;20258;-77
2023/06/11 10:21:37;;;;;;;8.23;5.43;;;;;;;28.07;38.03;99103.63;5129884;27;20190;-76
2023/06/11 10:24:08;;;;;;;5.97;5.10;;;;;;;28.40;37.88;99111.75;5082982;28;20196;-76
2023/06/11 10:26:37;;;;;;;7.65;5.57;;;;;;;28.82;38.12;99089.56;5085513;28;20647;-76
2023/06/11 10:29:11;;;;;;;6.00;5.40;;;;;;;29.45;37.59;99095.09;5051919;28;20220;-76
2023/06/11 10:31:41;;;;;;;7.72;5.18;;;;;;;29.78;38.13;99092.94;5079074;28;20212;-77
2023/06/11 10:34:14;;;;;;;7.70;5.22;;;;;;;29.96;35.86;99099.50;5075682;28;20736;-77
2023/06/11 10:36:42;;;;;;;6.60;5.28;;;;;;;30.36;35.83;99094.47;5080234;28;20204;-76
2023/06/11 10:39:22;;;;;;;6.28;5.10;;;;;;;29.67;36.59;99095.56;5046329;28;20197;-76
2023/06/11 10:42:00;;;;;;;6.40;5.10;;;;;;;29.98;37.02;99098.19;5041061;28;20276;-76
2023/06/11 10:44:30;;;;;;;7.97;5.45;;;;;;;30.05;37.27;99095.41;5046836;28;20197;-78
2023/06/11 10:47:01;;;;;;;6.78;5.30;;;;;;;30.45;35.98;99096.69;5035213;28;20189;-76
2023/06/11 10:49:30;;;;;;;8.65;5.40;;;;;;;30.62;35.79;99107.84;5063046;28;20648;-77
2023/06/11 10:52:01;;;;;;;10.23;5.40;;;;;;;30.88;35.11;99098.47;5073841;28;20726;-77
2023/06/11 10:54:36;;;;;;;5.85;5.20;;;;;;;31.06;35.17;99089.38;5068568;28;20212;-77
2023/06/11 10:57:07;;;;;;;6.88;4.90;;;;;;;31.10;34.70;99089.78;5081157;28;20191;-78
2023/06/11 10:59:38;;;;;;;9.48;5.43;;;;;;;31.47;34.55;99095.97;5118955;27;20187;-77
2023/06/11 11:02:07;;;;;;;7.72;5.68;;;;;;;31.13;35.09;99095.59;5111261;28;20198;-77
2023/06/11 11:04:36;;;;;;;7.20;5.25;;;;;;;31.64;34.66;99094.19;5111680;28;20202;-77
2023/06/11 11:07:09;;;;;;;10.38;5.85;;;;;;;31.46;34.50;99094.28;5115407;28;20195;-77
2023/06/11 11:09:38;;;;;;;8.45;5.55;;;;;;;32.11;33.75;99092.34;5107425;28;20203;-77
2023/06/11 11:12:09;;;;;;;6.88;5.32;;;;;;;32.45;34.53;99092.56;5107588;28;20209;-77
2023/06/11 11:14:37;;;;;;;6.50;5.40;;;;;;;31.69;35.33;99088.84;5115174;27;20203;-77
2023/06/11 11:17:06;;;;;;;7.38;5.65;;;;;;;31.88;35.32;99092.34;5113097;27;20206;-76
2023/06/11 11:19:36;;;;;;;5.88;5.25;;;;;;;32.53;34.05;99092.19;5113458;28;20197;-77
2023/06/11 11:22:06;;;;;;;7.47;5.47;;;;;;;32.35;35.18;99086.88;5109724;28;20191;-77
2023/06/11 11:24:35;;;;;;;5.68;5.18;;;;;;;31.98;35.31;99083.53;5105659;28;20199;-77
2023/06/11 11:27:09;;;;;;;7.63;5.35;;;;;;;32.45;34.04;99087.91;5110063;28;20202;-77
2023/06/11 11:29:38;;;;;;;6.57;5.25;;;;;;;32.71;33.40;99072.78;5111603;28;20183;-77
2023/06/11 11:32:07;;;;;;;7.68;5.00;;;;;;;32.48;32.50;99081.09;5105770;28;20205;-77
2023/06/11 11:34:40;;;;;;;5.78;5.20;;;;;;;32.40;32.03;99079.56;5115141;28;20286;-78
2023/06/11 11:37:09;;;;;;;5.57;5.05;;;;;;;32.25;31.98;99078.38;5068321;28;20199;-77
2023/06/11 11:39:38;;;;;;;5.60;5.10;;;;;;;32.38;32.09;99070.75;5072026;28;20205;-77
2023/06/11 11:42:10;;;;;;;5.78;5.05;;;;;;;31.97;33.02;99060.78;5060868;28;20206;-77